Terminal Aerodrome Forecast
Issued by NWS

Home | Current Version | Previous Version | Graphics & Text | Print | Product List | Glossary On
Versions: 1 2 3 4 5 6 7 8 9 10 11 12
000
FTUS43 KFGF 282300
TAFBJI
TAF
KBJI 282337Z 2900/2924 18015G22KT P6SM BKN250
     FM290700 19015G23KT P6SM -SHRA BKN050
     FM291200 29018G26KT P6SM -SHRA OVC025
     FM291500 30020G28KT P6SM BKN015
     FM291800 30020G28KT P6SM SCT025=

USA.gov is the U.S. government's official web portal to all federal, state and local government web resources and services.